createdAt,value
2022-10-26T00:00:26.134Z,99862.50
2022-10-26T00:03:14.522Z,99858.34
2022-10-26T00:06:07.458Z,99853.13
2022-10-26T00:08:56.316Z,99846.25
2022-10-26T00:11:44.665Z,99845.31
2022-10-26T00:14:34.396Z,99853.13
2022-10-26T00:17:22.717Z,99845.41
2022-10-26T00:20:11.750Z,99839.78
2022-10-26T00:23:00.123Z,99844.16
2022-10-26T00:25:55.667Z,99835.72
2022-10-26T00:28:44.003Z,99841.84
2022-10-26T00:31:33.798Z,99857.56
2022-10-26T00:34:22.162Z,99859.53
2022-10-26T00:37:10.594Z,99864.75
2022-10-26T00:39:58.972Z,99875.16
2022-10-26T00:42:47.551Z,99872.25
2022-10-26T00:45:36.234Z,99883.25
2022-10-26T00:48:28.431Z,99894.31
2022-10-26T00:51:26.454Z,99887.88
2022-10-26T00:54:19.058Z,99880.72
2022-10-26T00:57:07.470Z,99870.22
2022-10-26T00:59:55.969Z,99869.38
2022-10-26T01:02:44.335Z,99867.63
2022-10-26T01:05:34.189Z,99870.22
2022-10-26T01:08:22.597Z,99870.22
2022-10-26T01:11:10.943Z,99876.16
2022-10-26T01:13:59.473Z,99873.72
2022-10-26T01:16:56.738Z,99888.72
2022-10-26T01:20:45.902Z,99891.41
2022-10-26T01:23:39.061Z,99882.97
2022-10-26T01:27:05.425Z,99862.66
2022-10-26T01:30:25.102Z,99849.88
2022-10-26T01:33:30.783Z,99848.50
2022-10-26T01:36:24.395Z,99838.31
2022-10-26T01:39:16.280Z,99839.13
2022-10-26T01:42:04.849Z,99846.84
2022-10-26T01:44:55.407Z,99843.94
2022-10-26T01:47:45.390Z,99837.19
2022-10-26T01:50:33.812Z,99828.91
2022-10-26T01:53:22.187Z,99819.31
2022-10-26T01:56:13.835Z,99814.94
2022-10-26T01:59:20.541Z,99815.88
2022-10-26T02:02:33.836Z,99813.38
2022-10-26T02:05:36.570Z,99808.19
2022-10-26T02:08:50.126Z,99820.22
2022-10-26T02:11:40.989Z,99816.72
2022-10-26T02:14:34.736Z,99820.22
2022-10-26T02:17:28.543Z,99826.16
2022-10-26T02:20:19.635Z,99825.44
2022-10-26T02:23:09.420Z,99830.63
2022-10-26T02:25:59.152Z,99823.78
2022-10-26T02:28:50.926Z,99822.31
2022-10-26T02:31:39.489Z,99820.84
2022-10-26T02:34:28.288Z,99814.19
2022-10-26T02:37:17.191Z,99803.25
2022-10-26T02:40:12.256Z,99801.03
2022-10-26T02:43:03.004Z,99797.72
2022-10-26T02:45:54.429Z,99801.34
2022-10-26T02:48:42.849Z,99791.97
2022-10-26T02:51:35.521Z,99798.13
2022-10-26T02:54:29.020Z,99804.16
2022-10-26T02:57:20.654Z,99799.69
2022-10-26T03:03:04.182Z,99806.06
2022-10-26T03:05:52.677Z,99804.19
2022-10-26T03:08:41.187Z,99807.53
2022-10-26T03:11:29.612Z,99809.91
2022-10-26T03:14:19.360Z,99809.69
2022-10-26T03:17:07.783Z,99814.06
2022-10-26T03:19:56.669Z,99831.47
2022-10-26T03:22:45.110Z,99852.34
2022-10-26T03:25:33.460Z,99874.94
2022-10-26T03:28:21.860Z,99887.41
2022-10-26T03:31:11.589Z,99856.94
2022-10-26T03:34:00.077Z,99840.22
2022-10-26T03:36:48.566Z,99862.59
2022-10-26T03:39:36.978Z,99877.06
2022-10-26T03:42:25.560Z,99867.28
2022-10-26T03:45:13.942Z,99886.00
2022-10-26T03:48:03.815Z,99878.94
2022-10-26T03:50:52.276Z,99887.47
2022-10-26T03:53:40.714Z,99884.78
2022-10-26T03:56:29.125Z,99881.25
2022-10-26T03:59:17.507Z,99873.34
2022-10-26T04:02:05.887Z,99870.00
2022-10-26T04:04:55.556Z,99849.81
2022-10-26T04:07:44.058Z,99839.91
2022-10-26T04:10:32.722Z,99824.59
2022-10-26T04:13:21.140Z,99812.09
2022-10-26T04:16:09.616Z,99807.56
2022-10-26T04:18:57.997Z,99804.84
2022-10-26T04:21:47.695Z,99794.00
2022-10-26T04:24:36.067Z,99804.69
2022-10-26T04:27:24.526Z,99816.97
2022-10-26T04:30:14.357Z,99819.69
2022-10-26T04:33:02.822Z,99823.41
2022-10-26T04:35:51.227Z,99832.22
2022-10-26T04:38:40.971Z,99835.00
2022-10-26T04:41:29.351Z,99833.72
2022-10-26T04:44:17.682Z,99820.53
2022-10-26T04:47:06.165Z,99824.47
2022-10-26T04:49:54.545Z,99819.84
2022-10-26T04:52:42.979Z,99820.22
2022-10-26T04:55:32.755Z,99827.63
2022-10-26T04:58:21.189Z,99832.38
2022-10-26T05:01:09.770Z,99833.47
2022-10-26T05:03:58.246Z,99837.22
2022-10-26T05:06:46.656Z,99832.25
2022-10-26T05:09:35.363Z,99805.84
2022-10-26T05:12:25.324Z,99850.09
2022-10-26T05:15:15.350Z,99836.38
2022-10-26T05:18:05.528Z,99832.19
2022-10-26T05:20:54.361Z,99827.00
2022-10-26T05:23:42.986Z,99829.41
2022-10-26T05:26:31.435Z,99830.06
2022-10-26T05:29:21.532Z,99829.59
2022-10-26T05:32:10.299Z,99807.44
2022-10-26T05:34:58.826Z,99826.31
2022-10-26T05:37:47.294Z,99833.06
2022-10-26T05:40:35.766Z,99836.69
2022-10-26T05:43:25.352Z,99845.53
2022-10-26T05:46:15.549Z,99839.03
2022-10-26T05:49:04.028Z,99848.84
2022-10-26T05:51:52.626Z,99847.81
2022-10-26T05:54:41.002Z,99855.31
2022-10-26T05:57:31.198Z,99850.94
2022-10-26T06:00:22.451Z,99879.47
2022-10-26T06:03:21.311Z,99868.22
2022-10-26T06:05:54.499Z,99880.22
2022-10-26T06:08:25.916Z,99870.28
2022-10-26T06:10:56.258Z,99899.41
2022-10-26T06:13:25.274Z,99901.53
2022-10-26T06:16:04.654Z,99884.00
2022-10-26T06:18:45.482Z,99893.81
2022-10-26T06:21:29.389Z,99913.88
2022-10-26T06:24:06.633Z,99910.03
2022-10-26T06:26:45.776Z,99908.16
2022-10-26T06:29:25.357Z,99925.00
2022-10-26T06:31:58.376Z,99915.13
2022-10-26T06:34:38.054Z,99908.81
2022-10-26T06:37:11.375Z,99923.63
2022-10-26T06:39:51.347Z,99904.25
2022-10-26T06:42:26.725Z,99925.53
2022-10-26T06:44:57.885Z,99928.56
2022-10-26T06:47:31.512Z,99910.94
2022-10-26T06:50:08.785Z,99918.44
2022-10-26T06:52:44.515Z,99928.03
2022-10-26T06:55:19.420Z,99938.97
2022-10-26T06:57:50.470Z,99941.88
2022-10-26T07:00:21.437Z,99948.91
2022-10-26T07:02:50.616Z,99938.38
2022-10-26T07:05:20.340Z,99955.59
2022-10-26T07:07:49.061Z,99950.78
2022-10-26T07:10:17.657Z,99940.16
2022-10-26T07:12:45.985Z,99952.56
2022-10-26T07:15:14.303Z,99967.03
2022-10-26T07:17:46.171Z,99961.00
2022-10-26T07:20:20.502Z,99970.47
2022-10-26T07:22:54.218Z,99966.41
2022-10-26T07:25:22.591Z,99982.59
2022-10-26T07:27:51.111Z,99980.28
2022-10-26T07:30:19.596Z,99998.09
2022-10-26T07:32:48.011Z,100008.75
2022-10-26T07:35:16.536Z,100007.06
2022-10-26T07:37:44.598Z,99995.91
2022-10-26T07:40:14.781Z,100005.94
2022-10-26T07:42:45.537Z,100009.78
2022-10-26T07:45:22.020Z,100014.91
2022-10-26T07:47:51.059Z,100018.13
2022-10-26T07:50:19.410Z,100004.56
2022-10-26T07:52:47.919Z,100010.09
2022-10-26T07:55:17.982Z,99999.25
2022-10-26T07:57:48.567Z,99982.28
2022-10-26T08:00:22.500Z,99994.88
2022-10-26T08:02:52.179Z,100017.69
2022-10-26T08:05:23.519Z,100003.94
2022-10-26T08:07:52.131Z,100016.44
2022-10-26T08:10:24.491Z,100020.59
2022-10-26T08:12:58.443Z,100010.19
2022-10-26T08:15:26.886Z,100005.19
2022-10-26T08:17:55.187Z,100026.75
2022-10-26T08:20:23.429Z,100005.91
2022-10-26T08:22:52.859Z,100011.41
2022-10-26T08:25:22.581Z,100034.03
2022-10-26T08:27:50.825Z,100034.78
2022-10-26T08:30:19.226Z,100036.97
2022-10-26T08:32:47.623Z,100010.75
2022-10-26T08:35:16.652Z,100029.63
2022-10-26T08:37:44.849Z,100029.97
2022-10-26T08:40:16.938Z,100020.94
2022-10-26T08:42:48.611Z,100032.50
2022-10-26T08:45:34.379Z,100036.34
2022-10-26T08:48:17.356Z,100013.84
2022-10-26T08:50:48.473Z,100012.25
2022-10-26T08:53:24.493Z,100009.53
2022-10-26T08:56:00.721Z,100044.44
2022-10-26T08:58:34.529Z,100044.03
2022-10-26T09:01:03.440Z,100030.06
2022-10-26T09:03:33.621Z,100042.31
2022-10-26T09:06:17.943Z,100039.94
2022-10-26T09:12:10.270Z,100046.88
2022-10-26T09:14:46.263Z,100061.63
2022-10-26T09:17:21.972Z,100063.19
2022-10-26T09:20:17.851Z,100058.66
2022-10-26T09:22:50.415Z,100072.34
2022-10-26T09:28:21.385Z,100053.78
2022-10-26T09:30:51.156Z,100051.22
2022-10-26T09:33:20.754Z,100066.72
2022-10-26T09:35:51.308Z,100051.47
2022-10-26T09:38:35.156Z,100070.16
2022-10-26T09:41:07.077Z,100073.03
2022-10-26T09:43:45.231Z,100079.31
2022-10-26T09:46:17.197Z,100066.97
2022-10-26T09:48:54.478Z,100064.34
2022-10-26T09:51:28.047Z,100084.28
2022-10-26T09:53:57.262Z,100102.88
2022-10-26T09:56:25.508Z,100077.97
2022-10-26T09:59:02.028Z,100076.63
2022-10-26T10:01:42.500Z,100076.09
2022-10-26T10:04:26.170Z,100081.38
2022-10-26T10:07:15.491Z,100099.03
2022-10-26T10:09:46.833Z,100097.25
2022-10-26T10:12:40.205Z,100082.13
2022-10-26T10:15:22.219Z,100099.66
2022-10-26T10:17:53.623Z,100115.69
2022-10-26T10:20:26.319Z,100100.00
2022-10-26T10:22:59.115Z,100118.72
2022-10-26T10:25:35.828Z,100122.19
2022-10-26T10:28:04.499Z,100127.38
2022-10-26T10:30:33.875Z,100124.88
2022-10-26T10:33:08.267Z,100117.16
2022-10-26T10:35:36.897Z,100122.09
2022-10-26T10:38:05.325Z,100124.50
2022-10-26T10:40:33.464Z,100123.53
2022-10-26T10:43:07.235Z,100146.47
2022-10-26T10:45:35.320Z,100143.47
2022-10-26T10:48:06.004Z,100147.63
2022-10-26T10:50:34.326Z,100150.25
2022-10-26T10:53:19.761Z,100152.16
2022-10-26T10:56:10.765Z,100152.38
2022-10-26T10:58:46.585Z,100155.00
2022-10-26T11:01:15.726Z,100158.34
2022-10-26T11:03:54.584Z,100159.72
2022-10-26T11:06:23.652Z,100168.16
2022-10-26T11:08:53.400Z,100163.50
2022-10-26T11:11:23.545Z,100154.22
2022-10-26T11:13:54.826Z,100175.22
2022-10-26T11:16:25.756Z,100166.53
2022-10-26T11:18:57.621Z,100161.19
2022-10-26T11:21:29.232Z,100157.91
2022-10-26T11:24:13.274Z,100157.91
2022-10-26T11:26:46.333Z,100143.75
2022-10-26T11:29:35.105Z,100158.72
2022-10-26T11:32:13.226Z,100167.19
2022-10-26T11:34:47.412Z,100180.59
2022-10-26T11:37:20.770Z,100180.91
2022-10-26T11:40:03.756Z,100182.59
2022-10-26T11:42:35.927Z,100172.72
2022-10-26T11:45:09.088Z,100182.28
2022-10-26T11:47:41.799Z,100186.66
2022-10-26T11:50:18.585Z,100181.31
2022-10-26T11:52:50.337Z,100183.47
2022-10-26T11:55:18.719Z,100185.25
2022-10-26T11:57:47.759Z,100190.91
2022-10-26T12:00:18.054Z,100187.56
2022-10-26T12:02:49.922Z,100190.34
2022-10-26T12:05:33.589Z,100180.38
2022-10-26T12:08:04.996Z,100182.41
2022-10-26T12:10:34.356Z,100176.06
2022-10-26T12:13:09.042Z,100190.88
2022-10-26T12:16:02.175Z,100180.06
2022-10-26T12:18:54.527Z,100185.84
2022-10-26T12:21:27.378Z,100195.25
2022-10-26T12:23:57.175Z,100190.97
2022-10-26T12:26:53.471Z,100191.09
2022-10-26T12:29:36.550Z,100185.13
2022-10-26T12:32:29.220Z,100186.81
2022-10-26T12:35:02.844Z,100190.00
2022-10-26T12:37:37.058Z,100192.91
2022-10-26T12:40:41.673Z,100192.13
2022-10-26T12:43:36.817Z,100189.03
2022-10-26T12:46:45.205Z,100197.13
2022-10-26T12:50:09.151Z,100200.25
2022-10-26T12:52:46.030Z,100184.22
2022-10-26T12:55:51.880Z,100191.75
2022-10-26T12:59:03.715Z,100191.97
2022-10-26T13:02:03.632Z,100199.34
2022-10-26T13:05:23.255Z,100191.22
2022-10-26T13:07:52.732Z,100205.38
2022-10-26T13:10:23.019Z,100200.25
2022-10-26T13:12:54.024Z,100203.72
2022-10-26T13:15:25.389Z,100199.81
2022-10-26T13:18:02.460Z,100216.22
2022-10-26T13:20:31.559Z,100213.84
2022-10-26T13:25:31.292Z,100198.63
2022-10-26T13:28:05.812Z,100206.38
2022-10-26T13:30:48.275Z,100206.38
2022-10-26T13:33:23.403Z,100213.03
2022-10-26T13:35:54.595Z,100226.38
2022-10-26T13:38:26.762Z,100213.53
2022-10-26T13:41:01.508Z,100212.34
2022-10-26T13:43:29.700Z,100208.09
2022-10-26T13:45:59.888Z,100211.16
2022-10-26T13:48:38.553Z,100204.84
2022-10-26T13:51:15.762Z,100212.91
2022-10-26T13:53:48.607Z,100203.97
2022-10-26T13:56:24.385Z,100208.41
2022-10-26T13:58:56.343Z,100199.31
2022-10-26T14:01:25.874Z,100208.72
2022-10-26T14:03:54.224Z,100218.47
2022-10-26T14:06:27.911Z,100218.81
2022-10-26T14:08:59.811Z,100223.06
2022-10-26T14:11:33.768Z,100224.34
2022-10-26T14:14:02.061Z,100219.81
2022-10-26T14:16:31.737Z,100221.63
2022-10-26T14:18:59.820Z,100225.84
2022-10-26T14:21:27.906Z,100228.03
2022-10-26T14:23:58.582Z,100223.81
2022-10-26T14:26:28.346Z,100227.56
2022-10-26T14:28:57.890Z,100239.06
2022-10-26T14:31:28.410Z,100234.94
2022-10-26T14:33:57.581Z,100241.25
2022-10-26T14:36:29.934Z,100240.75
2022-10-26T14:39:02.760Z,100240.28
2022-10-26T14:41:31.922Z,100250.19
2022-10-26T14:44:00.355Z,100247.84
2022-10-26T14:46:29.917Z,100250.78
2022-10-26T14:48:59.521Z,100252.09
2022-10-26T14:51:28.699Z,100247.56
2022-10-26T14:54:01.057Z,100250.88
2022-10-26T14:56:32.009Z,100254.19
2022-10-26T14:59:00.168Z,100258.50
2022-10-26T15:01:33.157Z,100261.53
2022-10-26T15:04:05.313Z,100252.94
2022-10-26T15:06:42.333Z,100257.41
2022-10-26T15:09:38.943Z,100258.06
2022-10-26T15:12:09.404Z,100262.53
2022-10-26T15:14:37.540Z,100268.13
2022-10-26T15:17:05.683Z,100272.06
2022-10-26T15:19:40.482Z,100272.63
2022-10-26T15:22:21.647Z,100273.72
2022-10-26T15:24:53.087Z,100280.75
2022-10-26T15:27:21.226Z,100282.31
2022-10-26T15:29:51.064Z,100282.16
2022-10-26T15:32:31.697Z,100296.31
2022-10-26T15:35:33.905Z,100294.25
2022-10-26T15:38:02.116Z,100300.53
2022-10-26T15:40:31.525Z,100304.09
2022-10-26T15:43:01.484Z,100301.00
2022-10-26T15:45:34.911Z,100299.47
2022-10-26T15:48:19.336Z,100302.72
2022-10-26T15:50:47.520Z,100311.88
2022-10-26T15:53:20.614Z,100318.66
2022-10-26T15:55:50.380Z,100316.47
2022-10-26T15:58:18.513Z,100324.56
2022-10-26T16:00:46.688Z,100324.44
2022-10-26T16:03:22.864Z,100319.69
2022-10-26T16:05:52.760Z,100335.63
2022-10-26T16:08:20.817Z,100332.81
2022-10-26T16:10:51.041Z,100331.91
2022-10-26T16:13:19.148Z,100343.34
2022-10-26T16:15:47.233Z,100339.50
2022-10-26T16:18:15.485Z,100338.94
2022-10-26T16:20:46.477Z,100338.47
2022-10-26T16:23:14.600Z,100342.31
2022-10-26T16:25:44.357Z,100352.06
2022-10-26T16:28:15.026Z,100353.19
2022-10-26T16:30:43.178Z,100368.16
2022-10-26T16:33:11.488Z,100368.28
2022-10-26T16:35:39.543Z,100366.13
2022-10-26T16:38:07.591Z,100368.53
2022-10-26T16:40:35.750Z,100371.59
2022-10-26T16:43:03.920Z,100373.59
2022-10-26T16:45:33.508Z,100374.34
2022-10-26T16:48:05.753Z,100383.59
2022-10-26T16:50:36.337Z,100383.09
2022-10-26T16:53:05.035Z,100382.75
2022-10-26T16:55:33.358Z,100385.94
2022-10-26T16:58:01.549Z,100394.16
2022-10-26T17:00:29.748Z,100399.56
2022-10-26T17:03:00.819Z,100395.38
2022-10-26T17:05:28.924Z,100399.72
2022-10-26T17:07:57.183Z,100403.88
2022-10-26T17:10:27.852Z,100405.34
2022-10-26T17:12:57.284Z,100418.06
2022-10-26T17:15:28.835Z,100422.03
2022-10-26T17:17:57.193Z,100431.25
2022-10-26T17:20:26.830Z,100427.25
2022-10-26T17:22:55.017Z,100426.75
2022-10-26T17:25:23.199Z,100436.44
2022-10-26T17:27:51.323Z,100444.59
2022-10-26T17:30:19.669Z,100446.47
2022-10-26T17:32:48.072Z,100451.09
2022-10-26T17:35:16.914Z,100452.97
2022-10-26T17:37:46.606Z,100460.06
2022-10-26T17:40:15.198Z,100453.25
2022-10-26T17:42:43.416Z,100458.66
2022-10-26T17:45:12.143Z,100469.03
2022-10-26T17:47:40.303Z,100471.41
2022-10-26T17:50:09.370Z,100474.91
2022-10-26T17:52:37.716Z,100482.00
2022-10-26T17:55:07.881Z,100485.53
2022-10-26T17:57:36.077Z,100487.00
2022-10-26T18:00:06.267Z,100485.97
2022-10-26T18:02:40.847Z,100487.53
2022-10-26T18:05:10.446Z,100490.78
2022-10-26T18:07:38.570Z,100499.16
2022-10-26T18:10:32.804Z,100497.50
2022-10-26T18:12:58.061Z,100500.28
2022-10-26T18:15:26.329Z,100503.75
2022-10-26T18:17:58.276Z,100500.28
2022-10-26T18:20:28.798Z,100500.28
2022-10-26T18:22:57.491Z,100509.16
2022-10-26T18:25:27.098Z,100517.41
2022-10-26T18:27:55.390Z,100523.44
2022-10-26T18:30:23.718Z,100519.53
2022-10-26T18:32:52.433Z,100521.81
2022-10-26T18:35:20.877Z,100528.28
2022-10-26T18:37:49.372Z,100523.59
2022-10-26T18:40:18.004Z,100529.28
2022-10-26T18:42:47.660Z,100529.66
2022-10-26T18:45:16.008Z,100532.03
2022-10-26T18:47:44.125Z,100542.09
2022-10-26T18:50:12.309Z,100537.34
2022-10-26T18:52:40.518Z,100538.75
2022-10-26T18:55:10.402Z,100547.91
2022-10-26T18:57:38.460Z,100545.66
2022-10-26T19:00:10.060Z,100545.94
2022-10-26T19:02:38.226Z,100551.41
2022-10-26T19:05:07.918Z,100553.28
2022-10-26T19:07:38.976Z,100546.75
2022-10-26T19:10:09.256Z,100553.09
2022-10-26T19:12:37.454Z,100555.47
2022-10-26T19:15:08.270Z,100565.22
2022-10-26T19:17:36.501Z,100562.03
2022-10-26T19:20:05.657Z,100565.84
2022-10-26T19:22:33.902Z,100566.03
2022-10-26T19:25:03.758Z,100567.13
2022-10-26T19:27:31.957Z,100564.97
2022-10-26T19:30:00.065Z,100566.16
2022-10-26T19:32:29.844Z,100568.19
2022-10-26T19:34:58.040Z,100571.06
2022-10-26T19:37:28.494Z,100576.44
2022-10-26T19:39:56.977Z,100577.63
2022-10-26T19:42:25.163Z,100585.72
2022-10-26T19:44:53.322Z,100584.38
2022-10-26T19:47:21.484Z,100586.38
2022-10-26T19:49:50.994Z,100583.19
2022-10-26T19:54:52.118Z,100590.44
2022-10-26T19:57:20.260Z,100589.75
2022-10-26T19:59:48.461Z,100578.97
2022-10-26T20:02:16.716Z,100596.16
2022-10-26T20:05:04.830Z,100598.00
2022-10-26T20:07:53.280Z,100606.69
2022-10-26T20:10:42.325Z,100605.16
2022-10-26T20:13:30.727Z,100605.34
2022-10-26T20:16:19.122Z,100603.81
2022-10-26T20:19:07.581Z,100610.13
2022-10-26T20:21:57.465Z,100606.75
2022-10-26T20:24:45.866Z,100607.75
2022-10-26T20:27:34.258Z,100613.06
2022-10-26T20:30:22.631Z,100603.81
2022-10-26T20:33:11.258Z,100605.00
2022-10-26T20:35:59.960Z,100613.88
2022-10-26T20:38:50.582Z,100606.22
2022-10-26T20:41:43.378Z,100604.63
2022-10-26T20:44:34.417Z,100603.78
2022-10-26T20:47:23.632Z,100607.28
2022-10-26T20:50:15.145Z,100601.38
2022-10-26T20:53:05.505Z,100608.31
2022-10-26T20:55:57.716Z,100606.63
2022-10-26T20:58:48.151Z,100607.53
2022-10-26T21:01:38.140Z,100611.97
2022-10-26T21:04:26.653Z,100606.97
2022-10-26T21:07:15.049Z,100614.09
2022-10-26T21:10:03.450Z,100621.28
2022-10-26T21:12:53.367Z,100626.56
2022-10-26T21:15:42.024Z,100624.88
2022-10-26T21:18:30.431Z,100623.38
2022-10-26T21:21:18.845Z,100623.25
2022-10-26T21:24:08.002Z,100621.66
2022-10-26T21:26:56.808Z,100642.72
2022-10-26T21:29:46.604Z,100635.22
2022-10-26T21:32:35.046Z,100637.13
2022-10-26T21:35:23.807Z,100641.47
2022-10-26T21:38:12.205Z,100646.84
2022-10-26T21:41:04.753Z,100642.72
2022-10-26T21:44:03.340Z,100644.69
2022-10-26T21:46:58.751Z,100654.50
2022-10-26T21:49:47.302Z,100654.56
2022-10-26T21:52:35.903Z,100656.34
2022-10-26T21:55:24.593Z,100651.31
2022-10-26T21:58:13.161Z,100659.34
2022-10-26T22:01:08.204Z,100653.38
2022-10-26T22:03:58.252Z,100650.06
2022-10-26T22:06:46.611Z,100648.50
2022-10-26T22:09:40.748Z,100652.19
2022-10-26T22:12:38.252Z,100649.72
2022-10-26T22:15:26.695Z,100648.13
2022-10-26T22:18:15.369Z,100656.00
2022-10-26T22:21:05.547Z,100653.56
2022-10-26T22:23:53.953Z,100662.13
2022-10-26T22:26:42.341Z,100661.34
2022-10-26T22:29:30.981Z,100663.13
2022-10-26T22:32:22.075Z,100662.19
2022-10-26T22:35:24.816Z,100661.34
2022-10-26T22:38:18.616Z,100660.41
2022-10-26T22:41:07.302Z,100665.53
2022-10-26T22:43:55.706Z,100663.94
2022-10-26T22:46:44.328Z,100665.84
2022-10-26T22:49:32.726Z,100654.91
2022-10-26T22:52:22.552Z,100662.09
2022-10-26T22:55:12.380Z,100659.78
2022-10-26T22:58:00.779Z,100656.56
2022-10-26T23:00:49.239Z,100659.34
2022-10-26T23:03:37.707Z,100656.97
2022-10-26T23:06:27.718Z,100651.97
2022-10-26T23:09:16.138Z,100655.41
2022-10-26T23:12:06.184Z,100651.06
2022-10-26T23:14:54.730Z,100653.72
2022-10-26T23:17:43.109Z,100649.44
2022-10-26T23:20:33.447Z,100657.38
2022-10-26T23:23:21.847Z,100652.34
2022-10-26T23:26:12.044Z,100660.91
2022-10-26T23:29:01.771Z,100669.50
2022-10-26T23:31:50.270Z,100667.75
2022-10-26T23:34:38.662Z,100661.59
2022-10-26T23:37:27.064Z,100658.84
2022-10-26T23:40:15.597Z,100664.88
2022-10-26T23:43:04.126Z,100664.09
2022-10-26T23:45:54.033Z,100666.09
2022-10-26T23:48:42.408Z,100681.59
2022-10-26T23:51:30.791Z,100673.09
2022-10-26T23:54:19.179Z,100687.97
2022-10-26T23:57:07.609Z,100681.94
2022-10-26T23:59:56.008Z,100684.63
